Weather observations for the past three days for
Sonny Callahan Airport
Imperial (Metric)
Date Time (cdt) Wind (mph) Vis. (mi.) Weather Sky Cond. Temperature (ºF) Relative Humidity Wind Chill (°F) Heat Index (°F) Pressure Precipitation (in)
Air Dwpt 6 hour altimeter (in) sea level (mb) 1 hr 3 hr 6 hr
Max. Min.
09 08:15 NE 3 10.00 Light Rain SCT004 OVC010 68 66.2 94% 29.92 0.0
09 07:55 Calm 10.00 Overcast OVC010 68 66.2 94% 29.91 0.0
09 07:35 NE 6 10.00 Light Drizzle OVC010 68 66.2 94% 29.88 0.0
09 07:15 E 7 10.00 Overcast OVC010 66.2 66.2 100% 29.87 0.0
09 06:55 NE 3 10.00 Mostly Cloudy BKN012 68 66.2 94% 29.86 0.0 0.01
09 06:35 Calm 10.00 Light Rain BKN014 BKN075 BKN100 68 66.2 94% 29.85 0.0 0.01
09 06:15 Calm 10.00 Light Rain SCT075 SCT100 68 66.2 94% 29.86 0.0
09 05:55 Calm 10.00 Light Rain CLR 69.8 68 94% 29.84 0.0
09 05:35 SE 7 10.00 Fair CLR 68 66.2 94% 29.8 0.0
09 05:15 E 7 10.00 Partly Cloudy SCT110 68 66.2 94% 29.8 0.0
09 04:55 E 10 10.00 Mostly Cloudy BKN110 66.2 64.4 94% 29.81 0.0
09 04:35 SE 3 10.00 Partly Cloudy SCT120 66.2 64.4 94% 29.83 0.0
09 04:15 S 8 10.00 Fair CLR 66.2 64.4 94% 29.84 0.0
09 03:55 E 7 10.00 Fair CLR 64.4 64.4 100% 29.84 0.0
09 03:35 SE 5 10.00 Light Drizzle SCT110 64.4 64.4 100% 29.87 0.0
09 03:15 NE 3 10.00 Rain SCT100 64.4 64.4 100% 29.91 0.0
09 02:55 Calm 10.00 Light Rain SCT120 64.4 64.4 100% 29.91 0.0
09 02:35 Calm 10.00 Light Drizzle SCT100 BKN120 64.4 64.4 100% 29.91 0.0
09 02:15 Calm 10.00 Partly Cloudy SCT110 64.4 64.4 100% 29.91 0.0
09 01:55 NE 3 10.00 Light Rain CLR 64.4 64.4 100% 29.88 0.0
09 01:35 S 3 10.00 Fair CLR 64.4 64.4 100% 29.88 0.0
09 01:15 Calm 10.00 Partly Cloudy SCT070 SCT080 64.4 64.4 100% 29.9 0.0
09 00:55 Calm 10.00 Mostly Cloudy SCT070 SCT080 BKN120 64.4 64.4 100% 29.91 0.0
09 00:35 Calm 10.00 Mostly Cloudy BKN110 66.2 64.4 94% 29.91 0.0
09 00:15 Calm 10.00 Light Drizzle SCT120 66.2 64.4 94% 29.91 0.0
08 23:55 NE 3 10.00 Rain SCT050 SCT060 BKN120 66.2 64.4 94% 29.91 0.0
08 23:35 Calm 10.00 Light Rain SCT055 SCT075 BKN120 68 64.4 88% 29.91 0.0
08 23:15 N 6 10.00 Partly Cloudy SCT110 68 64.4 88% 29.91 0.0
08 22:55 SE 9 10.00 Partly Cloudy SCT120 68 62.6 83% 29.86 0.0 0.01
08 22:35 S 12 10.00 Partly Cloudy SCT120 68 62.6 83% 29.86 0.0 0.01
08 22:15 SE 15 G 20 10.00 Partly Cloudy SCT120 68 64.4 88% 29.85 0.0 0.01
08 21:55 E 9 10.00 Rain SCT110 68 64.4 88% 29.88 0.0
08 21:35 SE 10 G 17 10.00 Light Rain SCT110 68 64.4 88% 29.91 0.0
08 21:15 SE 14 G 21 10.00 Mostly Cloudy BKN120 66.2 64.4 94% 29.91 0.0
08 20:55 E 14 10.00 Light Rain BKN120 64.4 62.6 94% 29.91 0.0 0.04
08 20:35 E 7 10.00 Drizzle SCT110 64.4 64.4 100% 29.94 0.0 0.03
08 20:15 SE 8 10.00 Light Rain OVC110 64.4 64.4 100% 29.93 0.0 0.02
08 19:55 SE 5 10.00 Light Rain BKN100 OVC120 64.4 64.4 100% 29.94 0.0 0.01
08 19:35 S 3 10.00 Light Rain BKN110 64.4 64.4 100% 29.93 0.0 0.01
08 19:15 Calm 10.00 Light Rain SCT100 SCT120 64.4 64.4 100% 29.92 0.0 0.01
08 18:55 SE 3 10.00 Light Rain BKN100 BKN120 64.4 64.4 100% 29.91 0.0 0.02
08 18:35 E 3 10.00 Rain SCT055 SCT090 BKN110 64.4 64.4 100% 29.93 0.0 0.01
08 18:15 E 6 10.00 Light Rain SCT036 BKN065 OVC120 66.2 64.4 94% 29.93 0.0
08 17:55 E 8 10.00 Light Rain SCT050 BKN075 OVC110 64.4 64.4 100% 29.93 0.0
08 17:35 NE 6 10.00 Light Rain SCT038 BKN075 OVC085 66.2 64.4 94% 29.96 0.0
08 17:15 Calm 10.00 Light Drizzle OVC065 66.2 64.4 94% 29.98 0.0
08 16:55 Calm 10.00 Rain OVC065 66.2 64.4 94% 29.99 0.0 0.1
08 16:35 NW 3 7.00 Rain SCT045 OVC060 66.2 64.4 94% 30 0.0 0.08
08 16:15 NW 5 3.00 Rain BKN038 OVC050 68 64.4 88% 30 0.0 0.04
08 15:55 NW 3 10.00 Overcast OVC038 68 64.4 88% 29.98 0.0
08 15:35 Calm 10.00 Overcast OVC036 68 64.4 88% 29.97 0.0
08 15:15 Calm 10.00 Light Drizzle OVC036 68 64.4 88% 29.96 0.0
08 14:55 NE 3 10.00 Light Drizzle OVC032 68 64.4 88% 29.96 0.0
08 14:35 Calm 10.00 Light Drizzle SCT018 OVC030 68 64.4 88% 29.96 0.0
08 14:15 SE 5 10.00 Light Rain SCT013 OVC019 68 64.4 88% 29.97 0.0
08 13:55 N 6 10.00 Light Rain BKN013 OVC019 68 64.4 88% 29.98 0.0
08 13:35 NW 7 10.00 Overcast OVC019 69.8 64.4 83% 29.99 0.0
08 13:15 Calm 10.00 Light Drizzle OVC019 69.8 64.4 83% 29.98 0.0
08 12:55 E 3 10.00 Light Drizzle OVC019 69.8 64.4 83% 29.96 0.0
08 12:35 SE 6 10.00 Overcast BKN021 OVC037 69.8 62.6 78% 29.95 0.0
08 12:15 E 7 10.00 Overcast OVC021 69.8 62.6 78% 29.96 0.0
08 11:55 SE 6 10.00 Overcast OVC021 69.8 62.6 78% 29.97 0.0
08 11:35 E 5 10.00 Overcast OVC021 69.8 64.4 83% 29.98 0.0
08 11:15 E 3 10.00 Overcast OVC021 69.8 62.6 78% 29.99 0.0
08 10:55 NE 7 10.00 Light Rain OVC021 68 62.6 83% 29.98 0.0
08 10:35 NE 5 10.00 Overcast OVC019 68 62.6 83% 29.99 0.0
08 10:15 NE 6 10.00 Overcast OVC021 68 62.6 83% 29.99 0.0
08 09:55 NE 8 10.00 Overcast BKN023 OVC037 68 62.6 83% 29.99 0.0
08 09:35 NE 6 10.00 Overcast SCT023 OVC035 66.2 62.6 88% 29.98 0.0
08 09:15 NE 7 10.00 Overcast OVC021 64.4 60.8 88% 29.98 0.0
08 08:55 NE 6 10.00 Overcast OVC021 64.4 60.8 88% 29.99 0.0
08 08:35 E 6 10.00 Light Drizzle OVC021 64.4 60.8 88% 30 0.0
08 08:15 E 5 10.00 Overcast OVC019 64.4 60.8 88% 30.01 0.0
08 07:55 NE 5 10.00 Light Drizzle OVC019 64.4 60.8 88% 30.01 0.0
08 07:35 E 7 10.00 Light Rain OVC021 64.4 60.8 88% 30.01 0.0
08 07:15 NE 7 10.00 Overcast SCT019 OVC025 64.4 60.8 88% 30 0.0
08 06:55 NE 5 10.00 Overcast OVC019 64.4 60.8 88% 29.98 0.0
08 06:35 NE 7 10.00 Overcast OVC019 64.4 60.8 88% 29.97 0.0
08 06:15 NE 5 10.00 Overcast OVC019 64.4 60.8 88% 29.97 0.0
08 05:55 E 5 10.00 Overcast OVC019 64.4 60.8 88% 29.98 0.0
08 05:35 NE 6 10.00 Overcast OVC019 64.4 60.8 88% 29.96 0.0
08 05:15 NE 5 10.00 Overcast OVC021 64.4 60.8 88% 29.96 0.0
08 04:55 NE 6 10.00 Overcast OVC021 64.4 60.8 88% 29.96 0.0
08 04:35 NE 3 10.00 Overcast OVC021 64.4 60.8 88% 29.95 0.0
08 04:15 NE 6 10.00 Overcast OVC021 64.4 60.8 88% 29.94 0.0
08 03:55 E 7 10.00 Overcast OVC023 64.4 60.8 88% 29.95 0.0
08 03:35 NE 3 10.00 Overcast OVC025 64.4 60.8 88% 29.94 0.0
08 03:15 NE 3 10.00 Overcast OVC025 64.4 60.8 88% 29.94 0.0
08 02:55 NE 7 10.00 Overcast OVC027 64.4 60.8 88% 29.95 0.0
08 02:35 E 5 10.00 Overcast OVC029 64.4 60.8 88% 29.94 0.0
08 02:15 Calm 10.00 Overcast OVC031 64.4 60.8 88% 29.95 0.0
08 01:55 Calm 10.00 Mostly Cloudy BKN031 BKN044 64.4 62.6 94% 29.96 0.0
08 01:35 NE 3 10.00 Fair CLR 64.4 62.6 94% 29.96 0.0
08 01:15 E 6 10.00 Fair CLR 64.4 60.8 88% 29.96 0.0
08 00:55 N 3 10.00 Fair CLR 64.4 62.6 94% 29.97 0.0
08 00:35 Calm 10.00 Partly Cloudy SCT008 SCT023 66.2 62.6 88% 29.98 0.0
08 00:15 Calm 10.00 Mostly Cloudy BKN008 BKN023 66.2 62.6 88% 29.98 0.0
07 23:55 NE 7 10.00 Partly Cloudy SCT023 68 62.6 83% 29.98 0.0
07 23:35 Calm 10.00 Partly Cloudy SCT023 68 62.6 83% 29.97 0.0
07 23:15 NE 8 10.00 Partly Cloudy SCT023 68 64.4 88% 29.96 0.0
07 22:55 Calm 10.00 Partly Cloudy SCT023 68 64.4 88% 29.96 0.0
07 22:35 N 6 10.00 Partly Cloudy SCT024 68 64.4 88% 29.97 0.0
07 22:15 N 5 10.00 Mostly Cloudy BKN026 69.8 64.4 83% 29.97 0.0
07 21:55 N 5 10.00 Overcast OVC026 69.8 66.2 88% 29.98 0.0
07 21:35 Calm 10.00 Overcast OVC026 71.6 66.2 83% 29.97 0.0
07 21:15 Calm 10.00 Overcast OVC026 71.6 66.2 83% 29.97 0.0
07 20:55 Calm 10.00 Overcast OVC026 71.6 66.2 83% 29.96 0.0
07 20:35 Calm 10.00 Overcast OVC024 71.6 66.2 83% 29.95 0.0
07 20:15 Calm 10.00 Overcast OVC024 71.6 66.2 83% 29.93 0.0
07 19:55 Calm 10.00 Mostly Cloudy BKN024 71.6 66.2 83% 29.93 0.0
07 19:35 N 3 10.00 Partly Cloudy SCT024 73.4 68 83% 29.93 0.0
07 19:15 Calm 10.00 Overcast OVC024 73.4 68 83% 29.93 0.0
07 18:55 Calm 10.00 Overcast OVC024 73.4 69.8 89% 29.92 0.0
07 18:35 NW 3 10.00 Overcast OVC022 73.4 69.8 89% 29.92 0.0
07 18:15 Calm 10.00 Mostly Cloudy BKN022 73.4 68 83% 29.92 0.0
07 17:55 NW 5 10.00 Partly Cloudy SCT024 73.4 68 83% 29.92 0.0
07 17:35 NW 3 10.00 Partly Cloudy SCT024 73.4 68 83% 29.92 0.0
07 17:15 NW 8 10.00 Fair CLR 75.2 69.8 83% 75 29.92 0.0
07 16:55 NW 5 10.00 Fair CLR 73.4 69.8 89% 29.92 0.0
07 16:35 W 7 10.00 Mostly Cloudy BKN014 77 69.8 79% 79 29.92 0.0
07 16:15 NW 5 10.00 Overcast OVC014 75.2 71.6 89% 75 29.91 0.0
07 15:55 Calm 10.00 Overcast OVC014 77 69.8 79% 79 29.91 0.0
07 15:35 Calm 10.00 Overcast OVC009 75.2 69.8 83% 75 29.92 0.0
07 15:15 Calm 10.00 Overcast BKN007 OVC050 75.2 71.6 89% 75 29.92 0.0
07 14:55 N 3 10.00 Overcast OVC005 73.4 71.6 94% 29.92 0.0
07 14:35 NE 3 10.00 Overcast OVC005 71.6 69.8 94% 29.93 0.0
07 14:15 NE 3 10.00 Light Rain OVC005 71.6 69.8 94% 29.93 0.0
07 13:55 N 5 10.00 Overcast OVC005 69.8 69.8 100% 29.94 0.0 0.11
07 13:35 Calm 10.00 Overcast BKN005 OVC011 69.8 69.8 100% 29.94 0.0 0.11
07 13:15 N 5 2.00 Heavy Rain OVC005 71.6 69.8 94% 29.94 0.0 0.1
07 12:55 NW 6 10.00 Drizzle OVC005 71.6 71.6 100% 29.95 0.0 0.04
07 12:35 Calm 4.00 Light Rain BKN005 BKN023 OVC036 71.6 69.8 94% 29.95 0.0 0.03
07 12:15 Calm 4.00 Drizzle SCT005 SCT011 OVC022 69.8 69.8 100% 29.96 0.0 0.01
07 11:55 Calm 3.00 Drizzle SCT011 OVC022 69.8 69.8 100% 29.97 0.0 0.02
07 11:35 Calm 5.00 Light Drizzle BKN026 OVC031 69.8 69.8 100% 29.96 0.0 0.01
07 11:15 Calm 10.00 Light Rain OVC033 69.8 68 94% 29.96 0.0 0.01
07 10:55 W 5 5.00 Light Rain SCT017 BKN035 OVC044 69.8 68 94% 29.97 0.0 0.27
07 10:35 W 3 1.75 Heavy Rain SCT016 BKN037 OVC045 69.8 68 94% 29.98 0.0 0.22
07 10:15 W 3 4.00 Light Rain SCT005 BKN043 OVC050 69.8 68 94% 29.97 0.0 0.09
07 09:55 Calm 0.75 Heavy Rain BKN006 OVC027 69.8 68 94% 29.95 0.0 0.37
07 09:35 SW 5 10.00 Overcast BKN030 OVC043 75.2 71.6 89% 75 29.92 0.0
07 09:15 SW 7 10.00 Overcast OVC030 77 71.6 83% 78 29.94 0.0
07 08:55 SW 7 10.00 Overcast OVC030 77 71.6 83% 78 29.92 0.0
07 08:35 SW 7 10.00 Overcast OVC032 75.2 73.4 94% 74 29.92 0.0
07 08:15 SW 8 10.00 Overcast BKN034 OVC040 75.2 73.4 94% 74 29.92 0.0
07 07:55 SW 6 10.00 Overcast SCT006 BKN042 OVC048 75.2 73.4 94% 74 29.92 0.0
07 07:35 SW 7 10.00 Overcast BKN006 OVC049 75.2 73.4 94% 74 29.92 0.0
07 07:15 SW 6 10.00 Overcast OVC006 73.4 73.4 100% 29.91 0.0
07 06:55 SW 6 10.00 Overcast BKN006 OVC012 73.4 73.4 100% 29.91 0.0
07 06:35 SW 7 10.00 Overcast OVC006 73.4 73.4 100% 29.91 0.0
07 06:15 SW 7 10.00 Overcast OVC006 73.4 73.4 100% 29.9 0.0
07 05:55 SW 6 10.00 Overcast OVC004 73.4 73.4 100% 29.89 0.0
07 05:35 SW 8 10.00 Overcast OVC004 73.4 73.4 100% 29.88 0.0
07 05:15 SW 6 10.00 Overcast OVC004 73.4 73.4 100% 29.88 0.0
07 04:55 SW 7 10.00 Overcast OVC004 73.4 73.4 100% 29.88 0.0
07 04:35 SW 5 10.00 Overcast OVC004 73.4 73.4 100% 29.87 0.0
07 04:15 SW 5 10.00 Overcast OVC004 73.4 73.4 100% 29.87 0.0
07 03:55 S 6 10.00 Overcast OVC004 73.4 73.4 100% 29.87 0.0
07 03:35 S 8 10.00 Overcast OVC004 73.4 73.4 100% 29.88 0.0
07 03:15 S 10 G 16 7.00 Overcast OVC004 73.4 73.4 100% 29.88 0.0
07 02:55 S 8 G 16 7.00 Overcast OVC004 73.4 73.4 100% 29.88 0.0
07 02:35 S 5 7.00 Overcast OVC004 73.4 73.4 100% 29.89 0.0
07 02:15 S 10 G 17 7.00 Overcast OVC004 73.4 73.4 100% 29.88 0.0
07 01:55 S 14 7.00 Overcast OVC004 73.4 73.4 100% 29.88 0.0
07 01:35 S 13 G 18 7.00 Overcast OVC004 73.4 73.4 100% 29.9 0.0
07 01:15 S 12 7.00 Overcast OVC004 73.4 73.4 100% 29.9 0.0
07 00:55 S 8 G 16 7.00 Overcast OVC006 75.2 73.4 94% 74 29.91 0.0
07 00:35 S 10 7.00 Overcast OVC006 75.2 73.4 94% 74 29.91 0.0
07 00:15 S 8 7.00 Overcast OVC006 73.4 73.4 100% 29.92 0.0
06 23:55 S 13 7.00 Overcast OVC006 75.2 73.4 94% 74 29.92 0.0
06 23:35 S 13 10.00 Overcast OVC006 75.2 73.4 94% 74 29.91 0.0
06 23:15 S 12 10.00 Overcast OVC006 75.2 73.4 94% 74 29.91 0.0
06 22:55 S 10 10.00 Overcast OVC006 73.4 73.4 100% 29.93 0.0
06 22:35 S 8 10.00 Overcast OVC006 73.4 73.4 100% 29.93 0.0
06 22:15 S 12 10.00 Overcast OVC006 73.4 71.6 94% 29.92 0.0
06 21:55 S 9 10.00 Overcast OVC006 73.4 71.6 94% 29.91 0.0
06 21:35 S 16 G 21 10.00 Mostly Cloudy BKN006 73.4 71.6 94% 29.9 0.0
06 21:15 S 14 G 17 10.00 Mostly Cloudy BKN008 73.4 71.6 94% 29.91 0.0
06 20:55 S 12 10.00 Overcast OVC008 73.4 71.6 94% 29.9 0.0
06 20:35 S 14 G 20 10.00 Overcast OVC008 73.4 71.6 94% 29.91 0.0
06 20:15 S 12 10.00 Overcast OVC008 73.4 71.6 94% 29.91 0.0
06 19:55 S 15 G 21 10.00 Overcast OVC008 73.4 71.6 94% 29.91 0.0
06 19:35 S 13 10.00 Overcast OVC008 73.4 71.6 94% 29.91 0.0
06 19:15 S 12 G 16 10.00 Overcast OVC008 73.4 71.6 94% 29.92 0.0
06 18:55 S 13 10.00 Overcast BKN010 OVC016 75.2 71.6 89% 75 29.9 0.0
06 18:35 SE 17 G 21 10.00 Overcast BKN010 OVC016 75.2 71.6 89% 75 29.91 0.0
06 18:15 SE 13 10.00 Overcast SCT010 OVC016 77 71.6 83% 78 29.9 0.0
06 17:55 S 15 G 20 10.00 Overcast SCT010 OVC016 77 71.6 83% 78 29.91 0.0
06 17:35 SE 13 10.00 Overcast OVC016 77 71.6 83% 78 29.92 0.0
06 17:15 SE 12 G 17 10.00 Overcast OVC016 77 71.6 83% 78 29.93 0.0
06 16:55 SE 14 G 18 10.00 Overcast OVC016 77 71.6 83% 78 29.92 0.0
06 16:35 SE 10 10.00 Overcast OVC016 77 71.6 83% 78 29.93 0.0
06 16:15 SE 13 G 16 10.00 Overcast OVC016 77 71.6 83% 78 29.93 0.0
06 15:55 S 15 10.00 Overcast OVC018 77 71.6 83% 78 29.94 0.0
06 15:35 S 12 10.00 Overcast BKN020 BKN027 OVC039 78.8 71.6 79% 82 29.94 0.0
06 15:15 S 14 G 18 10.00 Overcast SCT018 BKN025 OVC042 78.8 71.6 79% 82 29.95 0.0
06 14:55 S 12 10.00 Overcast SCT024 OVC037 78.8 71.6 79% 82 29.95 0.0
06 14:35 S 10 10.00 Overcast SCT013 SCT022 OVC039 77 71.6 83% 78 29.96 0.0
06 14:15 S 12 G 21 10.00 Overcast SCT013 SCT022 OVC041 78.8 71.6 79% 82 29.97 0.0
06 13:55 S 16 10.00 Overcast SCT013 BKN025 OVC031 78.8 71.6 79% 82 29.98 0.0
06 13:35 S 13 10.00 Overcast SCT011 BKN022 OVC034 77 71.6 83% 78 29.98 0.0
06 13:15 S 10 G 17 10.00 Overcast SCT011 BKN021 OVC036 77 71.6 83% 78 29.98 0.0
06 12:55 S 9 10.00 Overcast SCT011 BKN017 OVC022 77 71.6 83% 78 29.99 0.0
06 12:35 S 7 7.00 Light Rain SCT013 OVC021 75.2 71.6 89% 75 30 0.0
06 12:15 S 8 10.00 Light Rain SCT011 OVC023 77 71.6 83% 78 30 0.0
06 11:55 S 8 10.00 Overcast SCT011 SCT017 OVC023 75.2 71.6 89% 75 30 0.0
06 11:35 S 8 10.00 Overcast OVC023 75.2 71.6 89% 75 30 0.0
06 11:15 S 9 10.00 Overcast SCT011 BKN023 OVC030 77 71.6 83% 78 30 0.0
06 10:55 S 7 10.00 Overcast SCT011 BKN021 OVC032 77 71.6 83% 78 29.99 0.0
06 10:35 S 6 10.00 Overcast SCT011 BKN021 OVC026 75.2 71.6 89% 75 29.99 0.0
06 10:15 S 8 10.00 Overcast OVC024 75.2 71.6 89% 75 29.99 0.0
06 09:55 S 7 10.00 Overcast BKN020 OVC026 73.4 71.6 94% 29.98 0.0
06 09:35 S 7 10.00 Overcast OVC020 73.4 69.8 89% 29.98 0.0
06 09:15 S 6 10.00 Overcast OVC018 73.4 69.8 89% 29.98 0.0
06 08:55 S 6 10.00 Overcast OVC018 73.4 69.8 89% 29.98 0.0
Date Time (cdt) Wind (mph) Vis. (mi.) Weather Sky Cond. Air Dwpt Max. Min. Relative Humidity Wind Chill (°F) Heat Index (°F) altimeter (in) sea level (mb) 1 hr 3 hr 6 hr
6 hour
Temperature (ºF) Pressure Precipitation (in)